createdAt,value
2018-05-15T00:00:10.028Z,10.73
2018-05-15T00:02:37.482Z,20.23
2018-05-15T00:05:04.923Z,10.70
2018-05-15T00:07:33.142Z,10.90
2018-05-15T00:10:00.589Z,14.60
2018-05-15T00:12:28.038Z,14.07
2018-05-15T00:14:55.499Z,12.40
2018-05-15T00:17:22.935Z,16.43
2018-05-15T00:19:50.379Z,11.90
2018-05-15T00:22:17.908Z,17.00
2018-05-15T00:24:46.128Z,11.10
2018-05-15T00:27:13.591Z,12.37
2018-05-15T00:29:41.053Z,13.00
2018-05-15T00:32:08.511Z,14.70
2018-05-15T00:34:36.031Z,14.27
2018-05-15T00:37:03.403Z,12.43
2018-05-15T00:39:30.859Z,13.77
2018-05-15T00:41:58.310Z,18.03
2018-05-15T00:44:25.768Z,13.53
2018-05-15T00:46:53.235Z,16.30
2018-05-15T00:49:20.680Z,15.17
2018-05-15T00:51:48.148Z,16.07
2018-05-15T00:54:15.600Z,15.00
2018-05-15T00:56:43.042Z,11.93
2018-05-15T00:59:10.492Z,12.13
2018-05-15T01:01:37.942Z,14.27
2018-05-15T01:04:05.391Z,9.60
2018-05-15T01:06:32.849Z,9.93
2018-05-15T01:09:01.060Z,12.67
2018-05-15T01:11:28.511Z,13.30
2018-05-15T01:13:55.955Z,10.97
2018-05-15T01:16:23.415Z,9.67
2018-05-15T01:18:50.860Z,14.27
2018-05-15T01:21:18.315Z,9.80
2018-05-15T01:23:45.776Z,12.00
2018-05-15T01:26:13.227Z,11.00
2018-05-15T01:28:40.682Z,14.30
2018-05-15T01:31:08.136Z,10.80
2018-05-15T01:33:35.572Z,6.90
2018-05-15T01:36:03.793Z,14.10
2018-05-15T01:38:32.005Z,7.97
2018-05-15T01:40:59.455Z,9.03
2018-05-15T01:43:26.902Z,11.17
2018-05-15T01:45:54.356Z,10.93
2018-05-15T01:48:21.788Z,11.20
2018-05-15T01:50:49.229Z,18.60
2018-05-15T01:53:16.681Z,10.63
2018-05-15T01:55:44.139Z,13.57
2018-05-15T01:58:11.602Z,12.53
2018-05-15T02:00:39.059Z,10.50
2018-05-15T02:03:06.513Z,16.93
2018-05-15T02:05:33.961Z,11.73
2018-05-15T02:08:01.408Z,9.70
2018-05-15T02:10:29.630Z,9.57
2018-05-15T02:12:57.074Z,15.13
2018-05-15T02:15:24.532Z,12.13
2018-05-15T02:17:52.000Z,11.07
2018-05-15T02:20:19.446Z,8.97
2018-05-15T02:22:46.896Z,8.80
2018-05-15T02:25:14.357Z,12.73
2018-05-15T02:27:41.804Z,11.10
2018-05-15T02:30:09.265Z,9.67
2018-05-15T02:32:36.702Z,10.00
2018-05-15T02:35:04.146Z,12.83
2018-05-15T02:37:32.369Z,10.00
2018-05-15T02:39:59.813Z,8.23
2018-05-15T02:42:27.264Z,18.47
2018-05-15T02:44:54.714Z,11.40
2018-05-15T02:47:22.159Z,8.30
2018-05-15T02:49:49.608Z,10.20
2018-05-15T02:52:17.046Z,12.67
2018-05-15T02:54:45.264Z,11.80
2018-05-15T02:57:12.719Z,12.80
2018-05-15T02:59:40.165Z,13.40
2018-05-15T03:02:07.628Z,9.93
2018-05-15T03:04:35.080Z,9.10
2018-05-15T03:07:02.548Z,9.10
2018-05-15T03:09:29.991Z,9.93
2018-05-15T03:11:57.439Z,9.50
2018-05-15T03:14:24.886Z,9.00
2018-05-15T03:16:53.106Z,15.47
2018-05-15T03:19:20.550Z,9.87
2018-05-15T03:21:48.003Z,10.60
2018-05-15T03:24:15.451Z,8.43
2018-05-15T03:26:42.897Z,12.50
2018-05-15T03:29:10.353Z,10.80
2018-05-15T03:31:38.084Z,30.23
2018-05-15T03:34:06.309Z,9.70
2018-05-15T03:36:33.759Z,13.20
2018-05-15T03:39:01.206Z,11.20
2018-05-15T03:41:28.649Z,12.43
2018-05-15T03:43:56.863Z,13.00
2018-05-15T03:46:24.320Z,15.40
2018-05-15T03:48:51.779Z,10.70
2018-05-15T03:51:19.224Z,11.40
2018-05-15T03:53:46.683Z,14.60
2018-05-15T03:56:14.134Z,15.30
2018-05-15T03:58:41.570Z,13.40
2018-05-15T04:01:21.008Z,12.50
2018-05-15T04:04:01.271Z,12.43
2018-05-15T04:06:40.621Z,12.50
2018-05-15T04:09:08.070Z,18.27
2018-05-15T04:11:35.541Z,13.80
2018-05-15T04:14:02.991Z,17.63
2018-05-15T04:16:30.439Z,13.40
2018-05-15T04:18:57.903Z,12.70
2018-05-15T04:21:25.344Z,11.53
2018-05-15T04:23:52.809Z,12.27
2018-05-15T04:26:20.248Z,14.40
2018-05-15T04:28:48.475Z,12.40
2018-05-15T04:31:15.928Z,12.27
2018-05-15T04:33:43.380Z,15.53
2018-05-15T04:36:10.882Z,11.47
2018-05-15T04:38:38.335Z,10.03
2018-05-15T04:41:05.775Z,11.97
2018-05-15T04:43:33.367Z,26.70
2018-05-15T04:46:00.779Z,10.77
2018-05-15T04:48:28.239Z,12.47
2018-05-15T04:50:55.689Z,11.63
2018-05-15T04:53:23.163Z,11.57
2018-05-15T04:55:50.610Z,12.40
2018-05-15T04:58:18.075Z,20.97
2018-05-15T05:00:45.523Z,15.10
2018-05-15T05:03:12.995Z,14.13
2018-05-15T05:05:40.442Z,15.80
2018-05-15T05:08:08.662Z,15.90
2018-05-15T05:10:36.110Z,18.80
2018-05-15T05:13:04.329Z,18.00
2018-05-15T05:15:32.553Z,12.70
2018-05-15T05:18:00.800Z,17.90
2018-05-15T05:20:28.224Z,15.70
2018-05-15T05:22:55.683Z,14.00
2018-05-15T05:25:23.135Z,18.30
2018-05-15T05:27:50.597Z,18.73
2018-05-15T05:30:18.045Z,14.90
2018-05-15T05:32:45.506Z,15.90
2018-05-15T05:35:12.953Z,16.63
2018-05-15T05:37:40.419Z,15.27
2018-05-15T05:40:07.938Z,14.70
2018-05-15T05:42:35.340Z,14.70
2018-05-15T05:45:02.787Z,12.00
2018-05-15T05:47:30.251Z,16.17
2018-05-15T05:49:57.704Z,12.30
2018-05-15T05:52:25.149Z,15.53
2018-05-15T05:54:52.605Z,14.10
2018-05-15T05:57:20.818Z,19.13
2018-05-15T05:59:48.283Z,13.67
2018-05-15T06:02:15.751Z,15.00
2018-05-15T06:04:43.207Z,15.90
2018-05-15T06:07:10.647Z,14.10
2018-05-15T06:09:38.098Z,15.90
2018-05-15T06:12:05.551Z,17.90
2018-05-15T06:14:33.000Z,19.33
2018-05-15T06:17:00.461Z,17.00
2018-05-15T06:19:27.912Z,12.80
2018-05-15T06:21:55.355Z,24.50
2018-05-15T06:24:22.796Z,17.20
2018-05-15T06:26:50.258Z,20.00
2018-05-15T06:29:17.705Z,15.80
2018-05-15T06:31:45.165Z,15.17
2018-05-15T06:34:12.610Z,15.80
2018-05-15T06:36:40.071Z,14.00
2018-05-15T06:39:07.533Z,17.30
2018-05-15T06:41:34.998Z,18.47
2018-05-15T06:44:02.457Z,18.50
2018-05-15T06:46:30.666Z,13.37
2018-05-15T06:48:58.119Z,15.93
2018-05-15T06:51:25.584Z,21.00
2018-05-15T06:53:53.026Z,14.53
2018-05-15T06:56:20.497Z,14.53
2018-05-15T06:58:47.960Z,20.20
2018-05-15T07:01:15.416Z,15.67
2018-05-15T07:03:42.878Z,21.33
2018-05-15T07:06:10.336Z,18.83
2018-05-15T07:08:37.797Z,14.33
2018-05-15T07:11:05.248Z,16.07
2018-05-15T07:13:32.710Z,17.10
2018-05-15T07:16:00.151Z,17.47
2018-05-15T07:18:27.601Z,21.90
2018-05-15T07:20:55.048Z,19.83
2018-05-15T07:23:22.504Z,18.20
2018-05-15T07:25:49.962Z,22.87
2018-05-15T07:28:17.418Z,18.37
2018-05-15T07:30:44.867Z,21.80
2018-05-15T07:33:12.383Z,20.27
2018-05-15T07:35:39.767Z,22.00
2018-05-15T07:38:07.215Z,18.00
2018-05-15T07:40:34.684Z,19.07
2018-05-15T07:43:02.137Z,22.40
2018-05-15T07:45:29.614Z,15.93
2018-05-15T07:47:57.078Z,19.80
2018-05-15T07:50:24.536Z,24.03
2018-05-15T07:52:51.989Z,22.13
2018-05-15T07:55:19.434Z,21.67
2018-05-15T07:57:46.894Z,19.83
2018-05-15T08:00:14.429Z,17.00
2018-05-15T08:02:41.818Z,16.17
2018-05-15T08:05:09.281Z,17.40
2018-05-15T08:07:36.728Z,19.63
2018-05-15T08:10:04.179Z,25.43
2018-05-15T08:12:31.629Z,19.80
2018-05-15T08:14:59.074Z,18.23
2018-05-15T08:17:26.523Z,16.47
2018-05-15T08:19:53.978Z,17.87
2018-05-15T08:22:21.467Z,19.50
2018-05-15T08:24:48.879Z,19.10
2018-05-15T08:27:16.336Z,14.33
2018-05-15T08:29:44.544Z,14.67
2018-05-15T08:32:12.014Z,18.93
2018-05-15T08:34:39.477Z,13.43
2018-05-15T08:37:06.923Z,20.17
2018-05-15T08:39:34.375Z,16.40
2018-05-15T08:42:01.821Z,16.80
2018-05-15T08:44:29.283Z,18.33
2018-05-15T08:46:56.735Z,14.00
2018-05-15T08:49:24.960Z,22.77
2018-05-15T08:51:52.402Z,14.50
2018-05-15T08:54:19.852Z,12.33
2018-05-15T08:56:47.864Z,12.43
2018-05-15T08:59:15.977Z,9.60
2018-05-15T09:01:43.431Z,10.20
2018-05-15T09:04:10.893Z,11.87
2018-05-15T09:06:38.330Z,11.20
2018-05-15T09:09:05.799Z,12.37
2018-05-15T09:11:33.251Z,13.60
2018-05-15T09:14:00.706Z,11.00
2018-05-15T09:16:28.151Z,10.10
2018-05-15T09:18:55.602Z,8.23
2018-05-15T09:21:23.047Z,10.23
2018-05-15T09:23:51.239Z,9.60
2018-05-15T09:26:18.704Z,10.70
2018-05-15T09:28:46.146Z,8.27
2018-05-15T09:31:13.600Z,10.90
2018-05-15T09:33:41.043Z,16.70
2018-05-15T09:36:08.486Z,18.60
2018-05-15T09:38:36.699Z,29.03
2018-05-15T09:41:04.160Z,22.53
2018-05-15T09:46:38.880Z,15.00
2018-05-15T09:49:06.330Z,13.70
2018-05-15T09:51:34.568Z,16.50
2018-05-15T09:54:02.053Z,15.80
2018-05-15T09:56:30.280Z,23.20
2018-05-15T09:58:57.726Z,16.47
2018-05-15T10:01:25.187Z,16.37
2018-05-15T10:03:52.634Z,18.10
2018-05-15T10:06:20.078Z,18.03
2018-05-15T10:08:47.530Z,19.93
2018-05-15T10:11:14.978Z,16.13
2018-05-15T10:13:42.495Z,28.30
2018-05-15T10:16:09.949Z,27.23
2018-05-15T10:18:37.400Z,21.13
2018-05-15T10:21:04.912Z,34.87
2018-05-15T10:23:32.359Z,17.93
2018-05-15T10:26:00.579Z,15.83
2018-05-15T10:28:28.043Z,17.70
2018-05-15T10:30:55.491Z,10.80
2018-05-15T10:33:22.943Z,14.70
2018-05-15T10:35:50.438Z,21.50
2018-05-15T10:38:17.898Z,19.30
2018-05-15T10:40:45.372Z,20.53
2018-05-15T10:43:13.591Z,13.20
2018-05-15T10:45:41.047Z,12.93
2018-05-15T10:48:08.504Z,13.73
2018-05-15T10:50:35.965Z,15.30
2018-05-15T10:53:03.420Z,23.60
2018-05-15T10:55:30.902Z,13.03
2018-05-15T10:57:58.362Z,20.83
2018-05-15T11:00:25.820Z,13.30
2018-05-15T11:02:53.267Z,15.17
2018-05-15T11:05:20.728Z,13.23
2018-05-15T11:07:48.170Z,16.30
2018-05-15T11:10:15.626Z,13.30
2018-05-15T11:12:43.188Z,23.80
2018-05-15T11:15:10.550Z,15.27
2018-05-15T11:17:38.002Z,18.47
2018-05-15T11:20:17.341Z,13.17
2018-05-15T11:22:56.745Z,11.90
2018-05-15T11:25:24.193Z,8.87
2018-05-15T11:27:51.626Z,7.13
2018-05-15T11:30:19.859Z,7.60
2018-05-15T11:32:47.310Z,9.30
2018-05-15T11:35:16.172Z,6.20
2018-05-15T11:37:43.626Z,6.67
2018-05-15T11:40:11.096Z,13.07
2018-05-15T11:42:38.561Z,8.00
2018-05-15T11:45:06.007Z,7.43
2018-05-15T11:47:33.554Z,6.10
2018-05-15T11:50:01.609Z,6.27
2018-05-15T11:52:28.891Z,13.13
2018-05-15T11:54:55.816Z,8.20
2018-05-15T11:57:24.166Z,18.10
2018-05-15T11:59:51.632Z,9.97
2018-05-15T12:02:19.191Z,10.30
2018-05-15T12:04:46.555Z,9.10
2018-05-15T12:07:13.999Z,19.03
2018-05-15T12:09:42.218Z,7.27
2018-05-15T12:12:09.658Z,14.50
2018-05-15T12:14:37.117Z,7.90
2018-05-15T12:17:04.572Z,10.10
2018-05-15T12:19:32.034Z,9.30
2018-05-15T12:21:59.480Z,4.73
2018-05-15T12:24:27.011Z,8.43
2018-05-15T12:26:54.376Z,9.50
2018-05-15T12:29:22.588Z,6.03
2018-05-15T12:31:50.024Z,6.73
2018-05-15T12:34:17.474Z,9.50
2018-05-15T12:36:44.911Z,8.27
2018-05-15T12:39:13.133Z,7.90
2018-05-15T12:41:40.648Z,10.07
2018-05-15T12:44:08.020Z,12.00
2018-05-15T12:46:35.874Z,14.87
2018-05-15T12:49:04.094Z,7.73
2018-05-15T12:51:31.550Z,8.30
2018-05-15T12:53:58.992Z,9.27
2018-05-15T12:56:26.445Z,21.23
2018-05-15T12:58:53.897Z,16.37
2018-05-15T13:01:21.365Z,15.20
2018-05-15T13:03:48.809Z,9.83
2018-05-15T13:06:16.271Z,12.90
2018-05-15T13:08:43.727Z,11.53
2018-05-15T13:11:11.174Z,14.73
2018-05-15T13:13:38.630Z,14.40
2018-05-15T13:16:06.082Z,11.57
2018-05-15T13:18:33.591Z,9.50
2018-05-15T13:21:01.022Z,9.03
2018-05-15T13:23:28.475Z,11.53
2018-05-15T13:25:55.928Z,19.23
2018-05-15T13:28:23.378Z,21.07
2018-05-15T13:30:50.834Z,26.27
2018-05-15T13:33:18.293Z,28.23
2018-05-15T13:35:45.739Z,21.03
2018-05-15T13:38:13.198Z,22.80
2018-05-15T13:40:40.656Z,25.43
2018-05-15T13:43:08.120Z,24.00
2018-05-15T13:45:35.572Z,28.93
2018-05-15T13:48:03.079Z,29.20
2018-05-15T13:50:30.528Z,27.07
2018-05-15T13:52:57.995Z,23.73
2018-05-15T13:55:25.448Z,23.83
2018-05-15T13:57:52.912Z,33.67
2018-05-15T14:00:20.353Z,32.30
2018-05-15T14:02:47.828Z,24.33
2018-05-15T14:05:15.273Z,28.10
2018-05-15T14:07:42.724Z,35.83
2018-05-15T14:10:10.196Z,21.13
2018-05-15T14:12:37.671Z,22.90
2018-05-15T14:15:05.092Z,22.30
2018-05-15T14:17:32.548Z,25.80
2018-05-15T14:19:59.994Z,18.50
2018-05-15T14:22:27.450Z,22.13
2018-05-15T14:24:55.653Z,21.53
2018-05-15T14:27:23.120Z,24.43
2018-05-15T14:29:50.565Z,29.23
2018-05-15T14:32:18.124Z,22.30
2018-05-15T14:34:45.588Z,20.80
2018-05-15T14:37:13.031Z,24.40
2018-05-15T14:39:40.478Z,26.93
2018-05-15T14:42:19.756Z,20.17
2018-05-15T14:44:47.976Z,21.47
2018-05-15T14:47:15.435Z,20.97
2018-05-15T14:49:42.887Z,26.10
2018-05-15T14:52:10.343Z,21.17
2018-05-15T14:54:37.802Z,24.70
2018-05-15T14:57:05.264Z,26.67
2018-05-15T14:59:32.722Z,22.80
2018-05-15T15:02:00.192Z,27.70
2018-05-15T15:04:27.647Z,22.27
2018-05-15T15:06:55.111Z,26.80
2018-05-15T15:09:22.580Z,20.97
2018-05-15T15:11:50.824Z,17.77
2018-05-15T15:14:18.274Z,19.80
2018-05-15T15:16:45.723Z,19.07
2018-05-15T15:19:13.162Z,15.93
2018-05-15T15:21:40.619Z,18.47
2018-05-15T15:24:08.083Z,18.67
2018-05-15T15:26:35.541Z,15.87
2018-05-15T15:29:02.973Z,14.93
2018-05-15T15:31:30.434Z,13.07
2018-05-15T15:33:57.879Z,12.30
2018-05-15T15:36:26.090Z,13.80
2018-05-15T15:38:53.536Z,13.10
2018-05-15T15:41:20.975Z,24.57
2018-05-15T15:43:48.474Z,16.57
2018-05-15T15:46:15.882Z,18.00
2018-05-15T15:48:43.347Z,22.67
2018-05-15T15:51:11.562Z,11.50
2018-05-15T15:53:39.016Z,14.20
2018-05-15T15:56:06.475Z,20.63
2018-05-15T15:58:33.927Z,11.53
2018-05-15T16:01:01.380Z,15.40
2018-05-15T16:03:28.844Z,13.30
2018-05-15T16:05:56.295Z,11.43
2018-05-15T16:08:23.741Z,12.00
2018-05-15T16:10:51.189Z,12.63
2018-05-15T16:13:18.656Z,13.93
2018-05-15T16:15:46.118Z,12.00
2018-05-15T16:18:13.562Z,11.87
2018-05-15T16:20:41.014Z,12.00
2018-05-15T16:23:08.457Z,15.30
2018-05-15T16:25:35.912Z,13.20
2018-05-15T16:28:03.359Z,11.60
2018-05-15T16:30:31.584Z,13.57
2018-05-15T16:32:59.025Z,11.23
2018-05-15T16:35:27.238Z,11.80
2018-05-15T16:37:54.675Z,14.60
2018-05-15T16:40:22.131Z,13.17
2018-05-15T16:42:49.575Z,11.40
2018-05-15T16:45:17.020Z,14.17
2018-05-15T16:47:44.481Z,12.60
2018-05-15T16:50:11.928Z,13.40
2018-05-15T16:52:39.388Z,10.60
2018-05-15T16:55:07.589Z,9.73
2018-05-15T16:57:35.039Z,7.43
2018-05-15T17:00:02.485Z,8.03
2018-05-15T17:02:29.930Z,8.57
2018-05-15T17:04:57.367Z,7.03
2018-05-15T17:07:24.823Z,8.30
2018-05-15T17:09:52.256Z,6.67
2018-05-15T17:12:20.470Z,5.83
2018-05-15T17:14:47.903Z,7.77
2018-05-15T17:17:15.344Z,7.33
2018-05-15T17:19:43.552Z,5.90
2018-05-15T17:22:11.004Z,5.57
2018-05-15T17:24:38.466Z,12.57
2018-05-15T17:27:05.903Z,7.07
2018-05-15T17:29:34.114Z,5.20
2018-05-15T17:32:01.557Z,8.13
2018-05-15T17:34:29.001Z,6.20
2018-05-15T17:36:56.472Z,7.80
2018-05-15T17:39:24.663Z,6.90
2018-05-15T17:41:52.111Z,7.00
2018-05-15T17:44:19.548Z,4.83
2018-05-15T17:46:46.991Z,4.93
2018-05-15T17:49:14.445Z,6.40
2018-05-15T17:51:42.647Z,6.80
2018-05-15T17:54:10.097Z,5.03
2018-05-15T17:56:37.536Z,4.93
2018-05-15T17:59:04.983Z,6.23
2018-05-15T18:01:33.191Z,6.27
2018-05-15T18:04:00.649Z,5.07
2018-05-15T18:06:28.093Z,7.90
2018-05-15T18:08:55.718Z,13.17
2018-05-15T18:11:23.202Z,5.67
2018-05-15T18:13:50.681Z,5.57
2018-05-15T18:16:18.123Z,7.77
2018-05-15T18:18:45.582Z,6.00
2018-05-15T18:21:13.031Z,5.13
2018-05-15T18:23:40.467Z,7.30
2018-05-15T18:26:08.705Z,8.17
2018-05-15T18:28:36.148Z,6.20
2018-05-15T18:31:03.600Z,10.73
2018-05-15T18:33:31.080Z,6.87
2018-05-15T18:35:58.530Z,9.40
2018-05-15T18:38:25.972Z,12.70
2018-05-15T18:40:54.177Z,8.47
2018-05-15T18:43:21.624Z,8.77
2018-05-15T18:45:49.053Z,8.87
2018-05-15T18:48:16.524Z,7.73
2018-05-15T18:50:43.996Z,6.13
2018-05-15T18:53:11.446Z,5.43
2018-05-15T18:55:38.902Z,6.27
2018-05-15T18:58:06.381Z,5.63
2018-05-15T19:00:33.816Z,12.80
2018-05-15T19:03:02.423Z,19.53
2018-05-15T19:05:29.856Z,18.77
2018-05-15T19:07:58.076Z,11.27
2018-05-15T19:10:25.529Z,10.27
2018-05-15T19:12:52.982Z,10.13
2018-05-15T19:15:21.191Z,11.80
2018-05-15T19:17:48.634Z,13.80
2018-05-15T19:20:16.078Z,8.93
2018-05-15T19:22:44.304Z,14.23
2018-05-15T19:25:11.747Z,11.20
2018-05-15T19:27:39.195Z,10.43
2018-05-15T19:30:06.669Z,12.83
2018-05-15T19:32:39.137Z,14.10
2018-05-15T19:35:07.351Z,7.90
2018-05-15T19:37:35.562Z,11.13
2018-05-15T19:40:08.721Z,8.00
2018-05-15T19:42:36.182Z,6.60
2018-05-15T19:45:04.512Z,7.00
2018-05-15T19:47:31.848Z,7.87
2018-05-15T19:49:59.289Z,5.60
2018-05-15T19:52:26.730Z,8.00
2018-05-15T19:54:54.943Z,6.73
2018-05-15T19:57:22.386Z,6.03
2018-05-15T19:59:49.852Z,8.57
2018-05-15T20:02:18.071Z,21.33
2018-05-15T20:04:46.296Z,10.57
2018-05-15T20:07:13.756Z,7.10
2018-05-15T20:09:41.242Z,7.67
2018-05-15T20:12:08.686Z,10.00
2018-05-15T20:14:36.139Z,21.13
2018-05-15T20:17:03.581Z,8.80
2018-05-15T20:19:31.043Z,8.57
2018-05-15T20:21:58.498Z,14.30
2018-05-15T20:24:25.963Z,13.03
2018-05-15T20:26:53.431Z,12.07
2018-05-15T20:29:20.896Z,8.00
2018-05-15T20:31:48.345Z,8.57
2018-05-15T20:34:15.809Z,9.80
2018-05-15T20:36:44.514Z,17.33
2018-05-15T20:39:18.164Z,11.57
2018-05-15T20:41:56.819Z,13.50
2018-05-15T20:44:24.260Z,9.00
2018-05-15T20:46:52.738Z,9.97
2018-05-15T20:49:22.117Z,13.20
2018-05-15T20:51:49.567Z,10.00
2018-05-15T20:54:19.915Z,9.13
2018-05-15T20:56:47.356Z,9.77
2018-05-15T20:59:18.044Z,11.60
2018-05-15T21:01:46.264Z,13.33
2018-05-15T21:04:13.715Z,12.00
2018-05-15T21:06:41.153Z,14.83
2018-05-15T21:09:08.619Z,12.97
2018-05-15T21:11:36.062Z,14.47
2018-05-15T21:14:04.276Z,9.57
2018-05-15T21:16:31.732Z,11.47
2018-05-15T21:18:59.211Z,15.17
2018-05-15T21:21:26.665Z,11.93
2018-05-15T21:23:54.125Z,12.80
2018-05-15T21:26:21.584Z,10.60
2018-05-15T21:28:49.043Z,13.03
2018-05-15T21:31:16.493Z,13.27
2018-05-15T21:33:43.940Z,13.47
2018-05-15T21:36:11.407Z,11.03
2018-05-15T21:38:38.929Z,15.53
2018-05-15T21:41:06.453Z,16.33
2018-05-15T21:43:33.991Z,10.10
2018-05-15T21:46:01.564Z,11.73
2018-05-15T21:48:29.029Z,14.03
2018-05-15T21:50:57.243Z,14.03
2018-05-15T21:53:24.690Z,13.53
2018-05-15T21:55:52.138Z,16.00
2018-05-15T21:58:19.595Z,19.73
2018-05-15T22:00:47.051Z,18.30
2018-05-15T22:03:14.496Z,15.43
2018-05-15T22:05:42.719Z,16.93
2018-05-15T22:08:10.187Z,18.50
2018-05-15T22:10:37.648Z,18.40
2018-05-15T22:13:17.028Z,16.77
2018-05-15T22:15:56.478Z,14.73
2018-05-15T22:18:35.803Z,17.00
2018-05-15T22:21:14.914Z,15.43
2018-05-15T22:23:42.636Z,18.27
2018-05-15T22:26:10.091Z,16.57
2018-05-15T22:28:37.541Z,13.93
2018-05-15T22:31:04.986Z,22.20
2018-05-15T22:33:32.450Z,18.50
2018-05-15T22:35:59.891Z,14.30
2018-05-15T22:38:27.333Z,14.70
2018-05-15T22:40:54.791Z,18.00
2018-05-15T22:43:22.249Z,14.07
2018-05-15T22:45:49.889Z,16.40
2018-05-15T22:48:17.361Z,18.33
2018-05-15T22:50:44.810Z,16.00
2018-05-15T22:53:13.079Z,15.27
2018-05-15T22:55:41.338Z,18.80
2018-05-15T22:58:08.791Z,21.43
2018-05-15T23:00:36.256Z,19.77
2018-05-15T23:03:03.701Z,21.10
2018-05-15T23:05:31.180Z,20.20
2018-05-15T23:07:59.394Z,19.00
2018-05-15T23:10:26.861Z,17.70
2018-05-15T23:12:55.295Z,17.60
2018-05-15T23:15:23.530Z,17.10
2018-05-15T23:17:50.979Z,20.13
2018-05-15T23:20:18.426Z,19.27
2018-05-15T23:22:45.870Z,16.50
2018-05-15T23:25:13.314Z,17.77
2018-05-15T23:27:40.764Z,18.60
2018-05-15T23:30:08.475Z,16.30
2018-05-15T23:32:35.920Z,16.20
2018-05-15T23:35:03.359Z,22.90
2018-05-15T23:37:30.811Z,14.77
2018-05-15T23:39:58.275Z,15.70
2018-05-15T23:42:25.721Z,17.30
2018-05-15T23:44:53.175Z,19.70
2018-05-15T23:47:20.631Z,17.47
2018-05-15T23:49:48.087Z,15.30
2018-05-15T23:52:15.552Z,14.93
2018-05-15T23:54:43.002Z,18.57
2018-05-15T23:57:10.456Z,14.03
2018-05-15T23:59:37.907Z,18.57
